Time;durP1;ratioP1;P1;durP2;ratioP2;P2;SDS_P1;SDS_P2;PMS_P1;PMS_P2;Temp;Humidity;BMP_temperature;BMP_pressure;BME280_temperature;BME280_humidity;BME280_pressure;Samples;Min_cycle;Max_cycle;Signal;HPM_P1;HPM_P2
2021/09/22 00:01:27;;;;;;;;;;;;;;;10.23;100.00;100724.99;1685200;83;20463;-93
2021/09/22 00:03:52;;;;;;;;;;;;;;;10.20;100.00;100726.59;1684953;83;20181;-94
2021/09/22 00:06:22;;;;;;;;;;;;;;;10.20;100.00;100723.12;1689437;84;20626;-92
2021/09/22 00:08:48;;;;;;;;;;;;;;;10.18;100.00;100721.13;1689327;83;20169;-94
2021/09/22 00:11:14;;;;;;;;;;;;;;;10.16;100.00;100719.09;1681175;83;21272;-93
2021/09/22 00:13:39;;;;;;;;;;;;;;;10.21;100.00;100716.89;1684677;84;20168;-89
2021/09/22 00:16:05;;;;;;;;;;;;;;;10.15;100.00;100714.81;1686447;83;20834;-91
2021/09/22 00:18:31;;;;;;;;;;;;;;;10.15;100.00;100717.45;1693032;83;20169;-91
2021/09/22 00:20:56;;;;;;;;;;;;;;;10.18;100.00;100717.17;1690622;83;20281;-90
2021/09/22 00:23:23;;;;;;;;;;;;;;;10.20;100.00;100707.30;1682760;83;21111;-91
2021/09/22 00:25:50;;;;;;;;;;;;;;;10.00;100.00;100709.92;1688615;84;20170;-90
2021/09/22 00:28:18;;;;;;;;;;;;;;;10.09;100.00;100713.55;1689509;83;20101;-93
2021/09/22 00:30:47;;;;;;;;;;;;;;;10.14;100.00;100710.48;1682873;84;21380;-88
2021/09/22 00:33:14;;;;;;;;;;;;;;;10.09;100.00;100714.86;1683835;84;20218;-91
2021/09/22 00:35:39;;;;;;;;;;;;;;;10.14;100.00;100713.12;1689893;84;21104;-92
2021/09/22 00:38:06;;;;;;;;;;;;;;;10.11;100.00;100710.77;1690323;83;20493;-92
2021/09/22 00:40:32;;;;;;;;;;;;;;;10.12;100.00;100713.77;1690666;84;20186;-91
2021/09/22 00:42:58;;;;;;;;;;;;;;;10.18;100.00;100712.71;1686779;84;20765;-92
2021/09/22 00:45:23;;;;;;;;;;;;;;;10.20;100.00;100709.94;1685640;83;20164;-91
2021/09/22 00:47:49;;;;;;;;;;;;;;;10.22;100.00;100707.98;1686044;84;21056;-88
2021/09/22 00:50:16;;;;;;;;;;;;;;;10.20;100.00;100704.66;1694477;84;20202;-92
2021/09/22 00:52:42;;;;;;;;;;;;;;;10.16;100.00;100716.45;1682891;84;20230;-90
2021/09/22 00:55:08;;;;;;;;;;;;;;;10.26;100.00;100705.91;1690366;84;20153;-90
2021/09/22 00:57:48;;;;;;;;;;;;;;;10.27;100.00;100703.13;1686994;84;20241;-92
2021/09/22 01:00:14;;;;;;;;;;;;;;;10.31;100.00;100701.86;1636027;84;21125;-92
2021/09/22 01:02:40;;;;;;;;;;;;;;;10.37;100.00;100694.73;1686276;84;20158;-90
2021/09/22 01:05:06;;;;;;;;;;;;;;;10.37;100.00;100702.64;1688259;84;20808;-92
2021/09/22 01:07:31;;;;;;;;;;;;;;;10.41;100.00;100700.08;1684956;84;20253;-91
2021/09/22 01:09:59;;;;;;;;;;;;;;;10.44;100.00;100692.84;1688783;83;20471;-94
2021/09/22 01:12:24;;;;;;;;;;;;;;;10.45;100.00;100691.88;1695460;83;21354;-92
2021/09/22 01:14:51;;;;;;;;;;;;;;;10.47;100.00;100696.05;1684358;83;20299;-90
2021/09/22 01:17:19;;;;;;;;;;;;;;;10.54;100.00;100693.66;1705082;83;20212;-91
2021/09/22 01:19:45;;;;;;;;;;;;;;;10.59;100.00;100696.70;1706353;83;20167;-87
2021/09/22 01:22:12;;;;;;;;;;;;;;;10.50;100.00;100693.59;1703397;83;20156;-90
2021/09/22 01:24:39;;;;;;;;;;;;;;;10.47;100.00;100691.23;1708164;83;21007;-93
2021/09/22 01:27:05;;;;;;;;;;;;;;;10.47;100.00;100689.92;1707427;83;20592;-92
2021/09/22 01:29:34;;;;;;;;;;;;;;;10.34;100.00;100690.22;1700466;83;20260;-92
2021/09/22 01:31:59;;;;;;;;;;;;;;;10.28;100.00;100692.90;1705655;83;20329;-91
2021/09/22 01:34:27;;;;;;;;;;;;;;;10.32;100.00;100688.19;1704675;83;20198;-92
2021/09/22 01:36:52;;;;;;;;;;;;;;;10.35;100.00;100690.08;1707842;83;21149;-90
2021/09/22 01:39:20;;;;;;;;;;;;;;;10.19;100.00;100692.42;1706878;83;20244;-92
2021/09/22 01:41:45;;;;;;;;;;;;;;;10.22;100.00;100692.14;1705598;83;20146;-91
2021/09/22 01:44:11;;;;;;;;;;;;;;;10.28;100.00;100693.39;1707309;83;21545;-91
2021/09/22 01:46:37;;;;;;;;;;;;;;;10.28;100.00;100694.22;1709179;83;20156;-89
2021/09/22 01:49:03;;;;;;;;;;;;;;;10.17;100.00;100695.70;1707111;83;21192;-91
2021/09/22 01:51:29;;;;;;;;;;;;;;;10.14;100.00;100702.57;1702186;83;20158;-89
2021/09/22 01:53:57;;;;;;;;;;;;;;;10.19;100.00;100693.27;1707007;83;20226;-92
2021/09/22 01:56:23;;;;;;;;;;;;;;;10.26;100.00;100693.54;1699903;83;20132;-91
2021/09/22 01:58:49;;;;;;;;;;;;;;;10.21;100.00;100705.02;1702170;83;20223;-91
2021/09/22 02:01:15;;;;;;;;;;;;;;;10.23;100.00;100693.81;1705874;83;21148;-92
2021/09/22 02:03:41;;;;;;;;;;;;;;;10.16;100.00;100697.52;1705488;83;20168;-91
2021/09/22 02:06:07;;;;;;;;;;;;;;;10.05;100.00;100696.31;1707095;83;20240;-90
2021/09/22 02:08:36;;;;;;;;;;;;;;;10.01;100.00;100694.95;1709856;83;20121;-91
2021/09/22 02:11:04;;;;;;;;;;;;;;;9.93;100.00;100691.68;1702109;83;20187;-91
2021/09/22 02:13:30;;;;;;;;;;;;;;;10.09;100.00;100690.30;1711096;83;21107;-91
2021/09/22 02:15:55;;;;;;;;;;;;;;;10.09;100.00;100691.11;1705892;83;20168;-91
2021/09/22 02:18:23;;;;;;;;;;;;;;;9.99;100.00;100688.48;1704468;83;20139;-91
2021/09/22 02:20:50;;;;;;;;;;;;;;;10.07;100.00;100683.83;1710878;83;21223;-88
2021/09/22 02:23:16;;;;;;;;;;;;;;;10.20;100.00;100683.54;1700426;83;20176;-91
2021/09/22 02:25:42;;;;;;;;;;;;;;;10.23;100.00;100683.26;1707098;83;21071;-91
2021/09/22 02:28:07;;;;;;;;;;;;;;;10.23;100.00;100683.26;1707645;83;20474;-92
2021/09/22 02:30:36;;;;;;;;;;;;;;;10.27;100.00;100676.73;1702962;83;20207;-89
2021/09/22 02:33:01;;;;;;;;;;;;;;;10.35;100.00;100683.98;1700112;83;20172;-92
2021/09/22 02:35:27;;;;;;;;;;;;;;;10.37;100.00;100680.20;1710550;83;20457;-92
2021/09/22 02:37:54;;;;;;;;;;;;;;;10.43;100.00;100676.67;1699696;83;21961;-91
2021/09/22 02:40:21;;;;;;;;;;;;;;;10.45;100.00;100678.67;1703120;83;20251;-88
2021/09/22 02:42:48;;;;;;;;;;;;;;;10.50;100.00;100677.75;1700020;83;20520;-90
2021/09/22 02:45:16;;;;;;;;;;;;;;;10.48;100.00;100677.07;1701049;83;20229;-94
2021/09/22 02:47:43;;;;;;;;;;;;;;;10.56;100.00;100675.86;1701056;83;20129;-92
2021/09/22 02:50:09;;;;;;;;;;;;;;;10.59;100.00;100667.16;1693338;83;21065;-89
2021/09/22 02:52:34;;;;;;;;;;;;;;;10.66;100.00;100674.03;1702165;83;20183;-92
2021/09/22 02:55:00;;;;;;;;;;;;;;;10.71;100.00;100674.42;1704837;83;20271;-91
2021/09/22 02:57:25;;;;;;;;;;;;;;;10.81;100.00;100669.59;1699959;83;20141;-92
2021/09/22 02:59:51;;;;;;;;;;;;;;;10.85;100.00;100667.02;1698759;83;20176;-91
2021/09/22 03:02:17;;;;;;;;;;;;;;;10.88;99.52;100670.70;1701823;83;21943;-92
2021/09/22 03:04:42;;;;;;;;;;;;;;;10.89;99.24;100674.98;1701296;83;20136;-91
2021/09/22 03:07:08;;;;;;;;;;;;;;;10.91;99.16;100673.05;1706940;83;20144;-88
2021/09/22 03:09:35;;;;;;;;;;;;;;;10.95;99.30;100673.08;1702679;83;20230;-91
2021/09/22 03:12:02;;;;;;;;;;;;;;;10.96;99.06;100674.75;1698648;83;20181;-93
2021/09/22 03:14:27;;;;;;;;;;;;;;;10.94;98.47;100676.72;1667320;84;21065;-92
2021/09/22 03:16:53;;;;;;;;;;;;;;;10.93;98.81;100672.41;1696591;83;20141;-91
2021/09/22 03:19:23;;;;;;;;;;;;;;;10.93;98.79;100673.22;1696848;84;21423;-90
2021/09/22 03:21:49;;;;;;;;;;;;;;;10.90;98.85;100677.98;1696519;82;20203;-90
2021/09/22 03:24:15;;;;;;;;;;;;;;;10.84;98.55;100673.27;1697014;84;20189;-88
2021/09/22 03:26:41;;;;;;;;;;;;;;;10.87;98.94;100675.62;1690621;83;22684;-91
2021/09/22 03:29:08;;;;;;;;;;;;;;;10.74;99.04;100676.78;1690737;84;20162;-92
2021/09/22 03:31:35;;;;;;;;;;;;;;;10.71;99.42;100684.99;1699327;83;20205;-89
2021/09/22 03:34:01;;;;;;;;;;;;;;;10.74;99.38;100681.24;1691641;84;20221;-90
2021/09/22 03:36:28;;;;;;;;;;;;;;;10.73;99.55;100680.39;1696712;83;21139;-91
2021/09/22 03:38:53;;;;;;;;;;;;;;;10.69;99.79;100681.67;1697318;82;21049;-87
2021/09/22 03:41:21;;;;;;;;;;;;;;;10.68;100.00;100674.72;1700167;84;20916;-90
2021/09/22 03:43:46;;;;;;;;;;;;;;;10.68;100.00;100679.17;1699174;82;20237;-86
2021/09/22 03:46:13;;;;;;;;;;;;;;;10.67;100.00;100678.31;1701556;83;20161;-89
2021/09/22 03:48:40;;;;;;;;;;;;;;;10.73;100.00;100689.63;1697386;83;20544;-88
2021/09/22 03:51:08;;;;;;;;;;;;;;;10.72;99.95;100690.63;1699653;83;20164;-90
2021/09/22 03:53:34;;;;;;;;;;;;;;;10.71;99.74;100691.59;1699178;84;20161;-90
2021/09/22 03:56:00;;;;;;;;;;;;;;;10.69;99.31;100686.95;1700473;83;20232;-90
2021/09/22 03:58:28;;;;;;;;;;;;;;;10.69;99.38;100684.31;1700242;83;20223;-91
2021/09/22 04:00:54;;;;;;;;;;;;;;;10.69;98.91;100690.06;1693450;84;20207;-86
2021/09/22 04:03:20;;;;;;;;;;;;;;;10.59;99.31;100688.78;1701459;83;21915;-90
2021/09/22 04:05:45;;;;;;;;;;;;;;;10.58;99.67;100682.67;1698184;83;20134;-92
2021/09/22 04:08:13;;;;;;;;;;;;;;;10.60;99.65;100684.67;1697017;84;20188;-89
2021/09/22 04:10:38;;;;;;;;;;;;;;;10.60;99.41;100683.84;1693499;83;20132;-91
2021/09/22 04:13:04;;;;;;;;;;;;;;;10.57;99.02;100684.14;1695675;83;20171;-90
2021/09/22 04:15:33;;;;;;;;;;;;;;;10.63;98.96;100682.25;1690733;83;21114;-90
2021/09/22 04:17:58;;;;;;;;;;;;;;;10.65;98.50;100688.20;1688035;83;20151;-90
2021/09/22 04:20:24;;;;;;;;;;;;;;;10.57;98.46;100688.92;1687821;84;20226;-92
2021/09/22 04:22:50;;;;;;;;;;;;;;;10.63;98.47;100695.45;1691036;84;20220;-89
2021/09/22 04:25:18;;;;;;;;;;;;;;;10.64;98.47;100689.17;1689850;83;20510;-90
2021/09/22 04:27:44;;;;;;;;;;;;;;;10.60;98.50;100685.17;1689616;83;20288;-91
2021/09/22 04:30:11;;;;;;;;;;;;;;;10.60;98.75;100691.78;1681714;83;20175;-89
2021/09/22 04:32:36;;;;;;;;;;;;;;;10.59;98.72;100688.78;1691895;84;20233;-90
2021/09/22 04:35:02;;;;;;;;;;;;;;;10.64;98.45;100690.98;1668805;84;20195;-90
2021/09/22 04:37:34;;;;;;;;;;;;;;;10.65;98.26;100698.77;1688541;84;20186;-90
2021/09/22 04:39:56;;;;;;;;;;;;;;;10.67;98.09;100694.17;1687131;83;20337;-92
2021/09/22 04:42:25;;;;;;;;;;;;;;;10.69;97.78;100700.16;1670739;84;20154;-90
2021/09/22 04:44:50;;;;;;;;;;;;;;;10.67;97.51;100694.17;1686482;84;20217;-89
2021/09/22 04:47:16;;;;;;;;;;;;;;;10.64;97.65;100701.05;1667608;84;20772;-91
2021/09/22 04:49:42;;;;;;;;;;;;;;;10.59;98.85;100696.70;1688523;84;20169;-90
2021/09/22 04:52:10;;;;;;;;;;;;;;;10.61;99.21;100692.09;1692117;83;21853;-91
2021/09/22 04:54:36;;;;;;;;;;;;;;;10.60;99.68;100695.73;1690216;84;20222;-90
2021/09/22 04:57:03;;;;;;;;;;;;;;;10.58;100.00;100695.02;1686402;83;20158;-90
2021/09/22 04:59:28;;;;;;;;;;;;;;;10.60;99.94;100701.02;1686238;84;20228;-90
2021/09/22 05:01:54;;;;;;;;;;;;;;;10.66;99.94;100704.87;1662253;84;20166;-92
2021/09/22 05:04:19;;;;;;;;;;;;;;;10.67;99.87;100706.05;1687424;84;21080;-90
2021/09/22 05:06:45;;;;;;;;;;;;;;;10.68;99.97;100710.87;1691617;83;20138;-89
2021/09/22 05:09:12;;;;;;;;;;;;;;;10.68;99.84;100716.98;1693507;83;20265;-93
2021/09/22 05:11:40;;;;;;;;;;;;;;;10.70;99.68;100712.38;1691982;83;20232;-91
2021/09/22 05:14:05;;;;;;;;;;;;;;;10.76;99.83;100718.91;1692766;83;20515;-90
2021/09/22 05:16:31;;;;;;;;;;;;;;;10.76;99.49;100718.41;1704843;83;21155;-87
2021/09/22 05:18:58;;;;;;;;;;;;;;;10.77;99.33;100718.76;1707687;83;20136;-91
2021/09/22 05:21:25;;;;;;;;;;;;;;;10.83;98.96;100713.87;1700622;83;20131;-91
2021/09/22 05:23:53;;;;;;;;;;;;;;;10.81;98.67;100715.83;1704099;83;20157;-89
2021/09/22 05:26:20;;;;;;;;;;;;;;;10.83;97.41;100713.87;1707101;83;20176;-89
2021/09/22 05:28:46;;;;;;;;;;;;;;;10.81;98.21;100709.23;1704240;83;20592;-87
2021/09/22 05:31:14;;;;;;;;;;;;;;;10.81;98.77;100715.83;1707383;83;20176;-89
2021/09/22 05:33:40;;;;;;;;;;;;;;;10.78;98.88;100711.19;1707485;83;20592;-93
2021/09/22 05:36:06;;;;;;;;;;;;;;;10.81;98.81;100717.16;1708742;83;20421;-88
2021/09/22 05:38:31;;;;;;;;;;;;;;;10.76;98.76;100716.27;1702701;83;20155;-91
2021/09/22 05:40:57;;;;;;;;;;;;;;;10.77;99.00;100717.44;1709918;83;21093;-90
2021/09/22 05:43:22;;;;;;;;;;;;;;;10.80;99.11;100719.44;1710759;83;20196;-90
2021/09/22 05:45:48;;;;;;;;;;;;;;;10.75;99.43;100720.72;1707124;83;20159;-91
2021/09/22 05:48:18;;;;;;;;;;;;;;;10.78;99.31;100717.80;1713373;83;20113;-88
2021/09/22 05:50:46;;;;;;;;;;;;;;;10.78;99.12;100716.47;1711293;83;20178;-89
2021/09/22 05:53:12;;;;;;;;;;;;;;;10.81;98.92;100720.62;1705887;83;21050;-86
2021/09/22 05:55:39;;;;;;;;;;;;;;;10.72;98.69;100714.41;1709349;83;20173;-85
2021/09/22 05:58:05;;;;;;;;;;;;;;;10.55;99.52;100715.97;1706629;83;20647;-89
2021/09/22 06:00:33;;;;;;;;;;;;;;;10.46;100.00;100714.67;1707487;83;20458;-89
2021/09/22 06:03:09;;;;;;;;;;;;;;;10.58;100.00;100713.51;1701916;83;20469;-88
2021/09/22 06:05:35;;;;;;;;;;;;;;;10.47;99.98;100715.86;1708399;83;20114;-95
2021/09/22 06:08:02;;;;;;;;;;;;;;;10.46;99.97;100720.78;1712377;83;20130;-87
2021/09/22 06:10:29;;;;;;;;;;;;;;;10.57;99.28;100717.97;1712688;83;20134;-86
2021/09/22 06:12:57;;;;;;;;;;;;;;;10.60;98.08;100733.53;1707630;83;20162;-87
2021/09/22 06:15:24;;;;;;;;;;;;;;;10.55;97.85;100732.28;1689101;83;20306;-88
2021/09/22 06:17:50;;;;;;;;;;;;;;;10.52;96.15;100741.34;1687038;83;21939;-83
2021/09/22 06:20:21;;;;;;;;;;;;;;;10.63;96.18;100729.78;1679295;84;20216;-89
2021/09/22 06:22:46;;;;;;;;;;;;;;;10.73;95.93;100723.16;1680851;83;21137;-88
2021/09/22 06:25:14;;;;;;;;;;;;;;;10.83;95.38;100732.36;1691642;84;20210;-88
2021/09/22 06:27:40;;;;;;;;;;;;;;;10.87;94.88;100732.43;1690455;84;20796;-88
2021/09/22 06:30:08;;;;;;;;;;;;;;;10.88;94.22;100739.39;1695410;83;22769;-86
2021/09/22 06:32:36;;;;;;;;;;;;;;;10.95;93.70;100735.18;1694186;84;20127;-88
2021/09/22 06:35:06;;;;;;;;;;;;;;;10.94;92.41;100734.36;1689195;84;20139;-85
2021/09/22 06:37:32;;;;;;;;;;;;;;;10.99;91.94;100733.92;1689144;84;20566;-89
2021/09/22 06:39:57;;;;;;;;;;;;;;;10.92;91.03;100732.36;1689561;83;20207;-87
2021/09/22 06:42:24;;;;;;;;;;;;;;;10.94;90.83;100730.89;1686393;83;21143;-90
2021/09/22 06:44:51;;;;;;;;;;;;;;;11.11;90.45;100744.66;1687965;84;20175;-84
2021/09/22 06:47:16;;;;;;;;;;;;;;;11.13;86.57;100747.98;1688094;84;20253;-86
2021/09/22 06:49:42;;;;;;;;;;;;;;;11.16;84.96;100753.98;1687913;84;20184;-87
2021/09/22 06:52:08;;;;;;;;;;;;;;;11.26;84.77;100751.64;1685759;84;20180;-85
2021/09/22 06:54:34;;;;;;;;;;;;;;;11.31;83.02;100769.68;1687276;84;21103;-85
2021/09/22 06:57:02;;;;;;;;;;;;;;;11.27;81.79;100751.14;1692346;83;20208;-87
2021/09/22 06:59:30;;;;;;;;;;;;;;;11.47;83.06;100752.70;1692787;83;20180;-89
2021/09/22 07:01:57;;;;;;;;;;;;;;;11.49;82.91;100757.84;1689060;84;20257;-86
2021/09/22 07:04:25;;;;;;;;;;;;;;;11.74;81.22;100755.48;1683610;84;20256;-87
2021/09/22 07:06:51;;;;;;;;;;;;;;;11.66;81.12;100766.81;1685218;83;21051;-88
2021/09/22 07:09:16;;;;;;;;;;;;;;;11.78;80.64;100761.66;1685401;84;20414;-88
2021/09/22 07:11:46;;;;;;;;;;;;;;;11.92;79.90;100766.11;1691499;84;20157;-88
2021/09/22 07:14:14;;;;;;;;;;;;;;;11.92;79.36;100755.52;1690422;83;20190;-86
2021/09/22 07:16:40;;;;;;;;;;;;;;;12.01;79.32;100754.66;1705039;83;21027;-89
2021/09/22 07:19:09;;;;;;;;;;;;;;;12.03;77.48;100755.33;1696721;83;21021;-87
2021/09/22 07:21:35;;;;;;;;;;;;;;;12.15;77.33;100763.39;1694515;83;20672;-88
2021/09/22 07:24:03;;;;;;;;;;;;;;;12.21;76.54;100756.16;1697370;83;20140;-85
2021/09/22 07:26:28;;;;;;;;;;;;;;;12.09;75.66;100761.81;1695667;83;20596;-84
2021/09/22 07:28:55;;;;;;;;;;;;;;;12.21;75.66;100770.73;1679746;83;20125;-88
2021/09/22 07:31:21;;;;;;;;;;;;;;;12.15;75.38;100761.20;1702216;83;21080;-87
2021/09/22 07:33:46;;;;;;;;;;;;;;;12.18;75.23;100764.41;1694079;83;20147;-87
2021/09/22 07:36:12;;;;;;;;;;;;;;;12.21;75.84;100766.75;1699976;83;20138;-90
2021/09/22 07:38:38;;;;;;;;;;;;;;;12.19;75.99;100764.73;1703845;83;20190;-87
2021/09/22 07:41:05;;;;;;;;;;;;;;;12.28;75.49;100766.14;1699496;83;20196;-86
2021/09/22 07:43:32;;;;;;;;;;;;;;;12.25;74.87;100777.05;1678805;83;22250;-87
2021/09/22 07:46:00;;;;;;;;;;;;;;;11.96;73.45;100772.78;1708520;83;20163;-88
2021/09/22 07:48:29;;;;;;;;;;;;;;;12.03;74.43;100769.38;1703423;83;20141;-90
2021/09/22 07:50:57;;;;;;;;;;;;;;;12.00;74.41;100771.51;1691957;83;20608;-83
2021/09/22 07:53:22;;;;;;;;;;;;;;;12.21;74.23;100772.52;1699641;83;20154;-86
2021/09/22 07:55:50;;;;;;;;;;;;;;;12.15;73.87;100775.30;1708338;83;21092;-91
2021/09/22 07:58:18;;;;;;;;;;;;;;;11.97;74.31;100778.42;1695965;83;20120;-88
2021/09/22 08:00:44;;;;;;;;;;;;;;;11.91;74.54;100775.02;1673230;83;20156;-88
2021/09/22 08:03:10;;;;;;;;;;;;;;;12.00;74.73;100778.95;1703802;83;20759;-88
2021/09/22 08:05:41;;;;;;;;;;;;;;;11.93;74.20;100773.08;1704400;83;20199;-92
2021/09/22 08:08:08;;;;;;;;;;;;;;;12.04;72.72;100779.47;1699215;83;22046;-91
2021/09/22 08:10:36;;;;;;;;;;;;;;;12.01;69.59;100775.83;1705887;83;20136;-90
2021/09/22 08:13:04;;;;;;;;;;;;;;;11.90;68.27;100773.34;1705009;83;20152;-90
2021/09/22 08:15:29;;;;;;;;;;;;;;;11.96;68.87;100781.58;1701081;83;20208;-87
2021/09/22 08:18:01;;;;;;;;;;;;;;;11.98;69.29;100768.19;1704208;83;20156;-86
2021/09/22 08:20:28;;;;;;;;;;;;;;;12.15;68.62;100783.24;1708624;83;20144;-90
2021/09/22 08:22:59;;;;;;;;;;;;;;;12.25;67.54;100779.69;1702669;83;20200;-91
2021/09/22 08:25:29;;;;;;;;;;;;;;;12.24;63.20;100791.25;1705605;83;20097;-92
2021/09/22 08:27:55;;;;;;;;;;;;;;;12.23;62.93;100787.78;1701633;83;20974;-93
2021/09/22 08:30:23;;;;;;;;;;;;;;;12.31;62.33;100791.00;1701783;82;20637;-87
2021/09/22 08:32:50;;;;;;;;;;;;;;;12.43;61.66;100783.17;1702307;83;21097;-89
2021/09/22 08:35:16;;;;;;;;;;;;;;;12.45;62.63;100786.48;1703478;83;20210;-91
2021/09/22 08:37:42;;;;;;;;;;;;;;;12.44;61.98;100792.75;1699914;83;20130;-90
2021/09/22 08:40:10;;;;;;;;;;;;;;;12.72;62.53;100789.53;1707715;83;20294;-92
2021/09/22 08:42:35;;;;;;;;;;;;;;;12.51;62.28;100781.90;1701358;83;20957;-88
2021/09/22 08:45:01;;;;;;;;;;;;;;;12.56;62.57;100785.41;1704346;83;21074;-88
2021/09/22 08:47:28;;;;;;;;;;;;;;;12.66;62.87;100793.27;1700118;83;20158;-89
2021/09/22 08:49:54;;;;;;;;;;;;;;;12.86;63.19;100783.31;1703334;83;20207;-90
2021/09/22 08:52:21;;;;;;;;;;;;;;;12.83;63.48;100771.19;1701384;83;20154;-92
2021/09/22 08:54:47;;;;;;;;;;;;;;;12.87;63.75;100769.08;1706985;83;20192;-90
2021/09/22 08:57:12;;;;;;;;;;;;;;;12.95;64.02;100769.12;1703938;83;21136;-87
2021/09/22 08:59:38;;;;;;;;;;;;;;;12.92;63.51;100780.03;1701901;83;20490;-87
2021/09/22 09:02:11;;;;;;;;;;;;;;;12.89;63.44;100778.52;1704571;83;20144;-88
2021/09/22 09:04:37;;;;;;;;;;;;;;;13.02;63.77;100775.94;1697003;83;20202;-88
2021/09/22 09:07:03;;;;;;;;;;;;;;;13.15;62.61;100772.38;1698402;83;20186;-91
2021/09/22 09:09:40;;;;;;;;;;;;;;;13.24;62.44;100766.13;1698794;83;21103;-90
2021/09/22 09:12:18;;;;;;;;;;;;;;;13.20;62.08;100774.56;1704498;83;20180;-89
2021/09/22 09:14:51;;;;;;;;;;;;;;;13.06;61.63;100762.72;1684253;83;20936;-89
2021/09/22 09:17:42;;;;;;;;;;;;;;;13.27;62.51;100755.71;1697322;83;20171;-91
2021/09/22 09:20:19;;;;;;;;;;;;;;;13.10;61.39;100762.25;1693402;83;21346;-89
2021/09/22 09:23:07;;;;;;;;;;;;;;;13.10;60.99;100768.05;1695686;83;21917;-88
2021/09/22 09:25:36;;;;;;;;;;;;;;;12.97;60.32;100779.56;1693944;83;20121;-87
2021/09/22 09:28:16;;;;;;;;;;;;;;;13.10;60.09;100758.27;1691784;83;20180;-86
2021/09/22 09:30:46;;;;;;;;;;;;;;;13.24;59.40;100744.09;1705401;83;20145;-87
2021/09/22 09:33:16;;;;;;;;;;;;;;;13.37;59.73;100756.94;1697444;83;20175;-87
2021/09/22 09:35:42;;;;;;;;;;;;;;;13.54;60.36;100745.39;1675568;83;21150;-86
2021/09/22 09:38:07;;;;;;;;;;;;;;;13.65;60.29;100749.06;1694448;83;20173;-88
2021/09/22 09:40:35;;;;;;;;;;;;;;;13.55;59.23;100748.39;1669614;83;20337;-87
2021/09/22 09:43:08;;;;;;;;;;;;;;;13.40;58.37;100752.64;1697018;83;20238;-85
2021/09/22 09:45:41;;;;;;;;;;;;;;;13.38;59.09;100746.67;1695767;83;20169;-85
2021/09/22 09:48:17;;;;;;;;;;;;;;;13.45;58.61;100749.00;1703191;83;21200;-84
2021/09/22 09:50:52;;;;;;;;;;;;;;;13.38;57.94;100752.80;1693591;83;20188;-87
2021/09/22 09:53:29;;;;;;;;;;;;;;;13.43;57.34;100753.14;1672210;83;20193;-88
2021/09/22 09:56:04;;;;;;;;;;;;;;;13.37;56.64;100741.02;1699624;83;20185;-88
2021/09/22 09:58:29;;;;;;;;;;;;;;;13.55;56.42;100744.41;1698497;83;20103;-86
2021/09/22 10:00:57;;;;;;;;;;;;;;;13.49;55.40;100742.39;1695619;83;21125;-87
2021/09/22 10:03:31;;;;;;;;;;;;;;;13.78;56.33;100735.83;1767731;79;20464;-91
2021/09/22 10:05:58;;;;;;;;;;;;;;;13.76;55.90;100735.16;1740890;81;20177;-89
2021/09/22 10:08:25;;;;;;;;;;;;;;;13.77;55.82;100732.34;1737437;80;21133;-89
2021/09/22 10:10:51;;;;;;;;;;;;;;;13.77;56.04;100734.19;1737960;82;20420;-87
2021/09/22 10:13:20;;;;;;;;;;;;;;;13.90;55.99;100737.17;1738585;81;20252;-89
2021/09/22 10:15:47;;;;;;;;;;;;;;;13.90;56.06;100736.36;1738226;80;20157;-89
2021/09/22 10:18:12;;;;;;;;;;;;;;;14.11;55.76;100734.57;1740189;80;20230;-88
2021/09/22 10:20:43;;;;;;;;;;;;;;;14.08;54.80;100734.90;1740411;80;21075;-86
2021/09/22 10:23:11;;;;;;;;;;;;;;;14.19;55.16;100730.58;1741604;81;20550;-89
2021/09/22 10:25:38;;;;;;;;;;;;;;;14.39;54.80;100735.55;1741147;80;20112;-89
2021/09/22 10:28:06;;;;;;;;;;;;;;;14.43;53.38;100728.41;1738783;80;20182;-89
2021/09/22 10:30:37;;;;;;;;;;;;;;;14.36;52.82;100742.86;1739378;80;20169;-87
2021/09/22 10:33:05;;;;;;;;;;;;;;;14.32;51.65;100725.58;1742457;81;21131;-88
2021/09/22 10:35:35;;;;;;;;;;;;;;;14.21;52.04;100721.94;1740533;80;20155;-88
2021/09/22 10:38:23;;;;;;;;;;;;;;;14.44;52.94;100730.58;1737089;80;20191;-87
2021/09/22 10:40:59;;;;;;;;;;;;;;;14.25;52.15;100739.72;1739250;81;20158;-86
2021/09/22 10:43:33;;;;;;;;;;;;;;;14.43;53.00;100731.06;1734482;81;20213;-89
2021/09/22 10:46:14;;;;;;;;;;;;;;;14.49;52.11;100726.91;1736582;80;21092;-87
2021/09/22 10:48:56;;;;;;;;;;;;;;;14.68;52.35;100725.27;1714171;82;20808;-87
2021/09/22 10:51:29;;;;;;;;;;;;;;;14.74;52.28;100717.61;1738225;81;20248;-89
2021/09/22 10:54:15;;;;;;;;;;;;;;;14.85;51.58;100710.59;1740038;80;20228;-88
2021/09/22 10:56:59;;;;;;;;;;;;;;;14.70;51.66;100725.10;1684527;84;20468;-88
2021/09/22 10:59:39;;;;;;;;;;;;;;;14.68;52.11;100718.63;1680129;83;21022;-89
2021/09/22 11:02:07;;;;;;;;;;;;;;;14.81;52.11;100721.26;1650350;85;20127;-89
2021/09/22 11:04:51;;;;;;;;;;;;;;;14.86;52.16;100721.57;1661165;85;20107;-87
2021/09/22 11:07:18;;;;;;;;;;;;;;;14.94;51.92;100721.53;1660742;85;20495;-86
2021/09/22 11:09:45;;;;;;;;;;;;;;;14.89;51.01;100719.39;1634873;85;20178;-88
2021/09/22 11:12:12;;;;;;;;;;;;;;;14.89;51.99;100715.91;1659489;85;21173;-86
2021/09/22 11:14:50;;;;;;;;;;;;;;;14.84;51.51;100716.42;1662457;85;20140;-86
2021/09/22 11:17:29;;;;;;;;;;;;;;;14.91;52.16;100713.91;1660730;85;20175;-86
2021/09/22 11:19:57;;;;;;;;;;;;;;;14.89;51.68;100714.58;1641436;86;20224;-85
2021/09/22 11:22:34;;;;;;;;;;;;;;;14.85;51.57;100717.23;1643328;86;20180;-87
2021/09/22 11:25:06;;;;;;;;;;;;;;;14.73;51.96;100724.77;1669797;84;21317;-87
2021/09/22 11:27:32;;;;;;;;;;;;;;;14.69;51.70;100716.27;1673381;84;20221;-86
2021/09/22 11:30:02;;;;;;;;;;;;;;;14.82;52.40;100720.23;1677470;84;20227;-86
2021/09/22 11:32:42;;;;;;;;;;;;;;;14.83;52.10;100724.05;1680823;84;20128;-87
2021/09/22 11:35:15;;;;;;;;;;;;;;;14.61;51.97;100742.88;1674940;84;20190;-87
2021/09/22 11:37:46;;;;;;;;;;;;;;;14.54;51.12;100725.91;1672044;84;21141;-87
2021/09/22 11:40:19;;;;;;;;;;;;;;;14.76;51.99;100723.58;1630887;86;20145;-86
2021/09/22 11:42:58;;;;;;;;;;;;;;;14.91;50.58;100716.56;1672095;83;20180;-86
2021/09/22 11:45:31;;;;;;;;;;;;;;;14.88;50.02;100722.22;1660911;85;20216;-87
2021/09/22 11:47:57;;;;;;;;;;;;;;;14.76;49.72;100719.59;1671530;84;20172;-86
2021/09/22 11:50:35;;;;;;;;;;;;;;;14.78;50.32;100706.97;1683910;84;21134;-86
2021/09/22 11:53:04;;;;;;;;;;;;;;;14.85;49.80;100706.60;1687140;84;20120;-86
2021/09/22 11:55:30;;;;;;;;;;;;;;;15.12;49.68;100709.84;1685177;84;20135;-86
2021/09/22 11:57:56;;;;;;;;;;;;;;;15.20;50.04;100711.16;1685197;84;20142;-87
2021/09/22 12:00:23;;;;;;;;;;;;;;;15.49;50.21;100709.67;1686378;84;20269;-88
2021/09/22 12:02:51;;;;;;;;;;;;;;;15.49;49.01;100718.98;1681855;83;21091;-85
2021/09/22 12:05:20;;;;;;;;;;;;;;;15.50;49.07;100710.02;1680072;84;20331;-87
2021/09/22 12:07:47;;;;;;;;;;;;;;;15.52;49.46;100704.00;1637021;87;20113;-87
2021/09/22 12:10:15;;;;;;;;;;;;;;;15.38;48.96;100713.55;1633240;86;20506;-86
2021/09/22 12:12:43;;;;;;;;;;;;;;;15.35;49.22;100714.75;1641661;86;20467;-89
2021/09/22 12:15:09;;;;;;;;;;;;;;;15.31;48.51;100720.08;1667366;85;21111;-88
2021/09/22 12:17:40;;;;;;;;;;;;;;;15.23;48.94;100715.63;1661275;86;20186;-86
2021/09/22 12:20:17;;;;;;;;;;;;;;;15.28;48.44;100711.63;1669528;85;20329;-84
2021/09/22 12:22:46;;;;;;;;;;;;;;;15.36;48.84;100717.72;1661242;84;20128;-86
2021/09/22 12:25:14;;;;;;;;;;;;;;;15.44;49.12;100708.86;1661729;84;21029;-91
2021/09/22 12:27:45;;;;;;;;;;;;;;;15.38;47.93;100705.09;1671536;83;22362;-86
2021/09/22 12:30:11;;;;;;;;;;;;;;;15.39;47.90;100704.06;1629947;86;20210;-85
2021/09/22 12:33:00;;;;;;;;;;;;;;;14.99;47.82;100713.89;1659089;85;20498;-86
2021/09/22 12:35:36;;;;;;;;;;;;;;;15.20;48.70;100701.84;1655051;86;20336;-86
2021/09/22 12:38:05;;;;;;;;;;;;;;;15.16;48.45;100712.48;1655742;86;20243;-84